createdAt,value
2022-12-16T00:00:17.909Z,98130.97
2022-12-16T00:02:47.765Z,98120.91
2022-12-16T00:05:16.444Z,98111.13
2022-12-16T00:07:44.840Z,98105.66
2022-12-16T00:10:13.522Z,98096.66
2022-12-16T00:12:42.175Z,98093.13
2022-12-16T00:15:11.913Z,98101.56
2022-12-16T00:17:40.819Z,98110.28
2022-12-16T00:20:12.699Z,98103.19
2022-12-16T00:22:41.068Z,98095.28
2022-12-16T00:25:10.658Z,98089.28
2022-12-16T00:27:39.014Z,98081.13
2022-12-16T00:30:09.671Z,98068.34
2022-12-16T00:32:37.986Z,98062.06
2022-12-16T00:35:07.420Z,98058.22
2022-12-16T00:37:37.148Z,98066.69
2022-12-16T00:40:07.171Z,98074.03
2022-12-16T00:42:35.576Z,98089.28
2022-12-16T00:45:04.879Z,98079.50
2022-12-16T00:47:33.272Z,98073.00
2022-12-16T00:50:01.949Z,98062.41
2022-12-16T00:52:30.520Z,98045.28
2022-12-16T00:55:00.351Z,98024.84
2022-12-16T00:57:28.727Z,98021.03
2022-12-16T00:59:57.099Z,98019.13
2022-12-16T01:02:25.564Z,98016.41
2022-12-16T01:04:54.048Z,98012.84
2022-12-16T01:07:23.293Z,98012.84
2022-12-16T01:09:52.342Z,98026.22
2022-12-16T01:12:25.036Z,98024.06
2022-12-16T01:14:53.404Z,98016.97
2022-12-16T01:17:22.077Z,98008.00
2022-12-16T01:19:50.475Z,98000.66
2022-12-16T01:22:19.432Z,97999.00
2022-12-16T01:24:47.853Z,97999.59
2022-12-16T01:27:16.875Z,97998.75
2022-12-16T01:29:46.601Z,98006.94
2022-12-16T01:32:16.093Z,97996.59
2022-12-16T01:34:48.451Z,98008.84
2022-12-16T01:37:20.567Z,98000.13
2022-12-16T01:39:49.233Z,97990.06
2022-12-16T01:42:19.789Z,97994.69
2022-12-16T01:44:55.026Z,97968.25
2022-12-16T01:47:27.861Z,97976.44
2022-12-16T01:50:04.026Z,97970.72
2022-12-16T01:52:38.809Z,97973.19
2022-12-16T01:55:12.615Z,97959.28
2022-12-16T01:57:47.284Z,97960.09
2022-12-16T02:00:18.111Z,97948.38
2022-12-16T02:02:48.617Z,97940.19
2022-12-16T02:05:24.438Z,97944.84
2022-12-16T02:08:01.003Z,97939.66
2022-12-16T02:10:48.551Z,97938.81
2022-12-16T02:13:27.773Z,97929.84
2022-12-16T02:16:09.965Z,97938.81
2022-12-16T02:18:51.003Z,97943.19
2022-12-16T02:21:40.306Z,97947.81
2022-12-16T02:25:10.552Z,97959.84
2022-12-16T02:27:56.926Z,97961.72
2022-12-16T02:31:03.420Z,97958.47
2022-12-16T02:34:03.325Z,97954.91
2022-12-16T02:36:55.493Z,97947.56
2022-12-16T02:39:29.728Z,97949.19
2022-12-16T02:42:13.119Z,97956.28
2022-12-16T02:44:54.328Z,97965.28
2022-12-16T02:47:24.702Z,97945.94
2022-12-16T02:49:55.223Z,97955.75
2022-12-16T02:52:27.255Z,97948.91
2022-12-16T02:55:00.541Z,97947.56
2022-12-16T02:58:11.775Z,97934.22
2022-12-16T03:00:53.571Z,97917.59
2022-12-16T03:03:29.885Z,97908.06
2022-12-16T03:06:01.373Z,97892.53
2022-12-16T03:08:35.196Z,97883.28
2022-12-16T03:11:06.230Z,97868.81
2022-12-16T03:13:40.967Z,97859.53
2022-12-16T03:16:13.335Z,97856.03
2022-12-16T03:18:47.821Z,97853.28
2022-12-16T03:21:17.122Z,97850.56
2022-12-16T03:23:54.224Z,97847.84
2022-12-16T03:26:28.755Z,97839.38
2022-12-16T03:29:03.364Z,97827.38
2022-12-16T03:31:39.926Z,97830.94
2022-12-16T03:34:18.299Z,97816.47
2022-12-16T03:36:52.653Z,97829.56
2022-12-16T03:39:23.232Z,97824.41
2022-12-16T03:41:54.528Z,97821.13
2022-12-16T03:44:26.417Z,97812.41
2022-12-16T03:46:55.021Z,97799.88
2022-12-16T03:49:24.804Z,97797.41
2022-12-16T03:51:54.625Z,97788.41
2022-12-16T03:54:24.338Z,97785.97
2022-12-16T03:56:52.783Z,97784.34
2022-12-16T03:59:21.352Z,97782.97
2022-12-16T04:01:50.096Z,97784.34
2022-12-16T04:04:19.374Z,97779.13
2022-12-16T04:07:09.980Z,97787.59
2022-12-16T04:09:38.386Z,97802.06
2022-12-16T04:12:21.397Z,97798.22
2022-12-16T04:15:06.986Z,97803.66
2022-12-16T04:17:53.242Z,97811.84
2022-12-16T04:20:41.714Z,97793.59
2022-12-16T04:23:30.723Z,97796.84
2022-12-16T04:25:59.662Z,97804.22
2022-12-16T04:28:28.027Z,97797.13
2022-12-16T04:30:56.833Z,97789.75
2022-12-16T04:33:43.105Z,97781.56
2022-12-16T04:36:28.692Z,97781.53
2022-12-16T04:39:15.539Z,97782.09
2022-12-16T04:42:01.469Z,97786.44
2022-12-16T04:44:47.127Z,97775.84
2022-12-16T04:47:32.798Z,97783.47
2022-12-16T04:50:18.629Z,97770.63
2022-12-16T04:53:04.226Z,97769.56
2022-12-16T04:55:51.527Z,97771.44
2022-12-16T04:58:37.362Z,97769.25
2022-12-16T05:01:23.296Z,97752.91
2022-12-16T05:04:09.567Z,97754.25
2022-12-16T05:06:55.409Z,97766.00
2022-12-16T05:09:41.355Z,97773.88
2022-12-16T05:12:28.313Z,97770.63
2022-12-16T05:15:14.292Z,97761.06
2022-12-16T05:18:00.254Z,97773.34
2022-12-16T05:20:46.112Z,97786.69
2022-12-16T05:23:32.313Z,97785.06
2022-12-16T05:26:18.382Z,97786.16
2022-12-16T05:29:05.333Z,97796.78
2022-12-16T05:31:51.222Z,97812.34
2022-12-16T05:34:33.464Z,97827.88
2022-12-16T05:37:19.059Z,97838.22
2022-12-16T05:40:05.001Z,97831.44
2022-12-16T05:43:05.065Z,97836.34
2022-12-16T05:45:52.533Z,97842.06
2022-12-16T05:48:40.984Z,97841.78
2022-12-16T05:51:30.227Z,97847.78
2022-12-16T05:54:15.812Z,97863.88
2022-12-16T05:57:01.872Z,97870.16
2022-12-16T05:59:47.656Z,97880.25
2022-12-16T06:02:34.852Z,97873.72
2022-12-16T06:05:20.840Z,97867.13
2022-12-16T06:08:25.271Z,97870.97
2022-12-16T06:11:11.249Z,97870.69
2022-12-16T06:13:57.251Z,97875.59
2022-12-16T06:16:42.851Z,97880.53
2022-12-16T06:19:30.160Z,97882.97
2022-12-16T06:22:15.899Z,97894.41
2022-12-16T06:25:01.420Z,97910.25
2022-12-16T06:27:47.069Z,97914.59
2022-12-16T06:30:33.236Z,97924.72
2022-12-16T06:33:19.134Z,97917.34
2022-12-16T06:36:06.142Z,97936.44
2022-12-16T06:39:00.492Z,97934.53
2022-12-16T06:41:46.203Z,97924.44
2022-12-16T06:44:32.221Z,97935.63
2022-12-16T06:47:18.123Z,97946.28
2022-12-16T06:50:03.784Z,97947.91
2022-12-16T06:52:50.922Z,97954.75
2022-12-16T06:55:37.214Z,97963.72
2022-12-16T06:58:23.023Z,97966.19
2022-12-16T07:01:09.310Z,97970.56
2022-12-16T07:03:54.981Z,97970.56
2022-12-16T07:06:40.856Z,97985.28
2022-12-16T07:09:27.961Z,97986.09
2022-12-16T07:12:13.866Z,97991.84
2022-12-16T07:14:59.584Z,98004.38
2022-12-16T07:17:45.511Z,98006.84
2022-12-16T07:20:31.866Z,98014.22
2022-12-16T07:23:32.342Z,98018.31
2022-12-16T07:26:19.973Z,98031.13
2022-12-16T07:29:05.486Z,98023.78
2022-12-16T07:31:51.365Z,98022.41
2022-12-16T07:34:41.285Z,98028.69
2022-12-16T07:37:28.706Z,98027.59
2022-12-16T07:40:14.575Z,98036.91
2022-12-16T07:43:04.802Z,98049.16
2022-12-16T07:45:51.106Z,98050.25
2022-12-16T07:48:36.765Z,98054.09
2022-12-16T07:51:22.563Z,98065.78
2022-12-16T07:54:08.216Z,98065.25
2022-12-16T07:56:53.928Z,98060.63
2022-12-16T07:59:52.650Z,98079.19
2022-12-16T08:02:38.328Z,98087.63
2022-12-16T08:05:25.124Z,98081.91
2022-12-16T08:08:10.700Z,98066.91
2022-12-16T08:10:56.687Z,98075.63
2022-12-16T08:13:42.981Z,98081.91
2022-12-16T08:16:30.153Z,98101.81
2022-12-16T08:19:16.326Z,98097.66
2022-12-16T08:22:02.404Z,98090.00
2022-12-16T08:24:53.192Z,98091.13
2022-12-16T08:27:39.511Z,98097.19
2022-12-16T08:30:27.666Z,98106.72
2022-12-16T08:33:19.321Z,98105.91
2022-12-16T08:36:06.411Z,98115.19
2022-12-16T08:38:52.823Z,98140.03
2022-12-16T08:41:38.764Z,98142.19
2022-12-16T08:44:24.896Z,98142.19
2022-12-16T08:47:10.670Z,98140.25
2022-12-16T08:50:01.532Z,98142.94
2022-12-16T08:52:49.094Z,98154.38
2022-12-16T08:55:35.287Z,98164.72
2022-12-16T08:58:20.856Z,98180.50
2022-12-16T09:01:07.964Z,98186.75
2022-12-16T09:03:54.174Z,98191.13
2022-12-16T09:06:41.936Z,98191.63
2022-12-16T09:09:28.251Z,98197.91
2022-12-16T09:12:14.064Z,98204.19
2022-12-16T09:14:59.800Z,98207.75
2022-12-16T09:17:45.534Z,98209.94
2022-12-16T09:20:31.586Z,98216.22
2022-12-16T09:23:31.747Z,98213.75
2022-12-16T09:26:17.617Z,98224.13
2022-12-16T09:29:03.639Z,98226.28
2022-12-16T09:31:49.274Z,98227.38
2022-12-16T09:34:35.065Z,98237.44
2022-12-16T09:37:21.047Z,98228.44
2022-12-16T09:40:13.764Z,98214.81
2022-12-16T09:43:09.138Z,98199.81
2022-12-16T09:46:07.440Z,98210.25
2022-12-16T09:49:00.564Z,98196.88
2022-12-16T09:51:47.739Z,98198.50
2022-12-16T09:54:38.206Z,98213.22
2022-12-16T09:57:28.795Z,98208.59
2022-12-16T10:00:21.080Z,98208.88
2022-12-16T10:03:09.391Z,98200.47
2022-12-16T10:06:15.512Z,98201.28
2022-12-16T10:09:11.160Z,98210.91
2022-12-16T10:12:11.140Z,98218.06
2022-12-16T10:15:07.459Z,98215.94
2022-12-16T10:17:59.844Z,98214.31
2022-12-16T10:20:58.035Z,98215.47
2022-12-16T10:23:50.810Z,98215.75
2022-12-16T10:26:48.304Z,98220.66
2022-12-16T10:29:38.774Z,98221.50
2022-12-16T10:32:37.422Z,98214.38
2022-12-16T10:35:38.042Z,98207.84
2022-12-16T10:38:36.882Z,98201.25
2022-12-16T10:41:23.215Z,98203.19
2022-12-16T10:44:10.369Z,98203.72
2022-12-16T10:46:56.376Z,98225.00
2022-12-16T10:49:43.587Z,98232.94
2022-12-16T10:52:32.275Z,98241.66
2022-12-16T10:55:31.110Z,98244.94
2022-12-16T10:58:37.898Z,98253.13
2022-12-16T11:01:56.332Z,98263.25
2022-12-16T11:04:52.207Z,98251.75
2022-12-16T11:07:50.882Z,98259.44
2022-12-16T11:10:54.124Z,98243.88
2022-12-16T11:13:44.423Z,98247.16
2022-12-16T11:16:35.831Z,98256.44
2022-12-16T11:19:23.031Z,98256.19
2022-12-16T11:22:23.846Z,98249.34
2022-12-16T11:25:25.179Z,98246.09
2022-12-16T11:28:22.548Z,98246.09
2022-12-16T11:31:12.525Z,98252.63
2022-12-16T11:33:58.730Z,98252.34
2022-12-16T11:36:45.755Z,98262.19
2022-12-16T11:39:36.626Z,98257.03
2022-12-16T11:42:24.042Z,98269.84
2022-12-16T11:45:15.597Z,98276.41
2022-12-16T11:48:05.719Z,98276.41
2022-12-16T11:50:55.507Z,98276.69
2022-12-16T11:53:51.054Z,98279.13
2022-12-16T11:56:57.050Z,98289.25
2022-12-16T11:59:52.186Z,98298.50
2022-12-16T12:02:51.326Z,98306.69
2022-12-16T12:05:41.040Z,98297.94
2022-12-16T12:08:39.896Z,98306.69
2022-12-16T12:11:35.991Z,98310.25
2022-12-16T12:14:39.225Z,98315.13
2022-12-16T12:17:41.228Z,98308.31
2022-12-16T12:20:55.793Z,98307.78
2022-12-16T12:23:56.665Z,98306.69
2022-12-16T12:26:49.514Z,98300.41
2022-12-16T12:29:51.299Z,98305.59
2022-12-16T12:32:45.526Z,98298.53
2022-12-16T12:35:50.527Z,98300.72
2022-12-16T12:38:43.430Z,98322.03
2022-12-16T12:41:48.498Z,98328.31
2022-12-16T12:44:49.464Z,98322.84
2022-12-16T12:47:37.596Z,98310.28
2022-12-16T12:50:32.563Z,98318.75
2022-12-16T12:53:34.604Z,98318.16
2022-12-16T12:56:29.054Z,98317.38
2022-12-16T12:59:21.881Z,98328.56
2022-12-16T13:02:12.036Z,98329.09
2022-12-16T13:04:58.630Z,98338.44
2022-12-16T13:07:45.104Z,98343.09
2022-12-16T13:10:54.257Z,98361.09
2022-12-16T13:13:53.276Z,98375.06
2022-12-16T13:17:25.989Z,98387.91
2022-12-16T13:20:16.870Z,98398.56
2022-12-16T13:23:04.819Z,98407.06
2022-12-16T13:26:09.798Z,98399.66
2022-12-16T13:28:59.280Z,98395.56
2022-12-16T13:31:48.861Z,98384.63
2022-12-16T13:34:47.073Z,98373.94
2022-12-16T13:37:42.386Z,98382.94
2022-12-16T13:40:37.532Z,98388.41
2022-12-16T13:43:24.115Z,98403.41
2022-12-16T13:46:35.994Z,98421.38
2022-12-16T13:50:04.126Z,98436.91
2022-12-16T13:53:01.439Z,98452.72
2022-12-16T13:55:52.180Z,98453.78
2022-12-16T13:58:55.059Z,98436.81
2022-12-16T14:01:55.683Z,98439.53
2022-12-16T14:04:48.122Z,98441.41
2022-12-16T14:07:36.837Z,98444.91
2022-12-16T14:10:23.784Z,98458.84
2022-12-16T14:13:21.862Z,98457.72
2022-12-16T14:16:20.736Z,98457.41
2022-12-16T14:19:26.555Z,98466.66
2022-12-16T14:22:21.288Z,98483.53
2022-12-16T14:25:09.599Z,98472.56
2022-12-16T14:27:55.590Z,98470.94
2022-12-16T14:30:44.658Z,98477.44
2022-12-16T14:33:42.611Z,98488.34
2022-12-16T14:36:43.942Z,98482.63
2022-12-16T14:39:32.138Z,98486.97
2022-12-16T14:42:19.522Z,98492.19
2022-12-16T14:45:06.847Z,98495.44
2022-12-16T14:47:52.907Z,98511.22
2022-12-16T14:50:43.910Z,98510.69
2022-12-16T14:53:37.667Z,98513.91
2022-12-16T14:56:36.171Z,98509.22
2022-12-16T14:59:31.703Z,98515.72
2022-12-16T15:02:29.163Z,98529.56
2022-12-16T15:05:15.776Z,98533.31
2022-12-16T15:08:07.268Z,98530.03
2022-12-16T15:10:53.745Z,98544.72
2022-12-16T15:13:40.876Z,98555.91
2022-12-16T15:16:37.449Z,98569.25
2022-12-16T15:19:23.983Z,98561.56
2022-12-16T15:22:09.836Z,98567.50
2022-12-16T15:24:57.445Z,98575.97
2022-12-16T15:27:45.145Z,98581.41
2022-12-16T15:30:56.800Z,98584.97
2022-12-16T15:33:47.115Z,98586.59
2022-12-16T15:36:44.499Z,98590.16
2022-12-16T15:39:40.205Z,98590.16
2022-12-16T15:42:39.532Z,98600.22
2022-12-16T15:45:37.388Z,98604.84
2022-12-16T15:48:36.032Z,98605.94
2022-12-16T15:51:23.756Z,98622.56
2022-12-16T15:54:21.973Z,98624.97
2022-12-16T15:57:07.998Z,98626.84
2022-12-16T15:59:56.450Z,98621.41
2022-12-16T16:02:45.810Z,98635.88
2022-12-16T16:05:33.688Z,98635.31
2022-12-16T16:08:20.953Z,98638.03
2022-12-16T16:11:06.631Z,98638.28
2022-12-16T16:13:52.360Z,98635.81
2022-12-16T16:16:38.402Z,98641.50
2022-12-16T16:19:30.826Z,98647.78
2022-12-16T16:22:16.891Z,98647.22
2022-12-16T16:25:04.073Z,98647.16
2022-12-16T16:27:50.583Z,98653.66
2022-12-16T16:30:36.562Z,98652.84
2022-12-16T16:33:23.576Z,98656.66
2022-12-16T16:36:09.486Z,98656.09
2022-12-16T16:38:55.397Z,98654.69
2022-12-16T16:41:43.352Z,98663.09
2022-12-16T16:44:29.237Z,98670.69
2022-12-16T16:47:28.281Z,98668.25
2022-12-16T16:50:19.124Z,98682.63
2022-12-16T16:53:05.139Z,98678.75
2022-12-16T16:55:50.916Z,98677.91
2022-12-16T16:58:45.479Z,98680.91
2022-12-16T17:01:34.850Z,98696.41
2022-12-16T17:04:21.176Z,98696.41
2022-12-16T17:07:07.404Z,98700.19
2022-12-16T17:09:53.367Z,98701.28
2022-12-16T17:12:42.095Z,98705.06
2022-12-16T17:15:36.175Z,98713.75
2022-12-16T17:18:23.669Z,98720.53
2022-12-16T17:21:10.498Z,98715.56
2022-12-16T17:23:57.466Z,98726.47
2022-12-16T17:26:43.831Z,98730.50
2022-12-16T17:29:38.726Z,98722.59
2022-12-16T17:32:26.965Z,98728.03
2022-12-16T17:35:12.759Z,98719.28
2022-12-16T17:37:58.775Z,98723.91
2022-12-16T17:40:45.559Z,98725.22
2022-12-16T17:43:32.736Z,98737.44
2022-12-16T17:46:21.786Z,98743.16
2022-12-16T17:49:12.169Z,98751.53
2022-12-16T17:51:57.600Z,98752.84
2022-12-16T17:54:43.832Z,98748.16
2022-12-16T17:57:30.904Z,98741.56
2022-12-16T18:00:17.019Z,98745.84
2022-12-16T18:03:03.348Z,98758.28
2022-12-16T18:05:51.072Z,98762.56
2022-12-16T18:08:37.438Z,98772.88
2022-12-16T18:11:24.226Z,98778.00
2022-12-16T18:14:11.460Z,98771.38
2022-12-16T18:16:57.776Z,98787.13
2022-12-16T18:19:44.824Z,98795.78
2022-12-16T18:22:37.437Z,98805.50
2022-12-16T18:25:24.216Z,98790.97
2022-12-16T18:28:10.220Z,98793.91
2022-12-16T18:30:57.680Z,98795.38
2022-12-16T18:33:43.841Z,98796.13
2022-12-16T18:36:29.792Z,98797.44
2022-12-16T18:39:17.509Z,98808.00
2022-12-16T18:42:04.939Z,98810.59
2022-12-16T18:45:00.701Z,98813.22
2022-12-16T18:47:47.980Z,98814.78
2022-12-16T18:50:38.051Z,98818.69
2022-12-16T18:53:25.449Z,98815.88
2022-12-16T18:56:22.839Z,98804.88
2022-12-16T18:59:09.551Z,98811.03
2022-12-16T19:01:57.796Z,98812.97
2022-12-16T19:04:44.629Z,98813.41
2022-12-16T19:07:33.753Z,98829.16
2022-12-16T19:10:22.688Z,98834.22
2022-12-16T19:13:15.054Z,98841.59
2022-12-16T19:16:01.653Z,98845.13
2022-12-16T19:18:48.584Z,98855.19
2022-12-16T19:21:36.389Z,98858.97
2022-12-16T19:24:22.920Z,98858.38
2022-12-16T19:27:15.181Z,98857.78
2022-12-16T19:30:05.183Z,98865.38
2022-12-16T19:32:50.870Z,98873.28
2022-12-16T19:35:37.491Z,98876.00
2022-12-16T19:38:23.842Z,98876.00
2022-12-16T19:41:13.154Z,98876.47
2022-12-16T19:47:09.393Z,98880.59
2022-12-16T19:49:56.075Z,98881.09
2022-12-16T19:52:42.584Z,98883.44
2022-12-16T19:55:29.233Z,98889.97
2022-12-16T19:58:15.173Z,98893.72
2022-12-16T20:01:03.938Z,98900.47
2022-12-16T20:03:56.665Z,98909.91
2022-12-16T20:07:01.140Z,98912.88
2022-12-16T20:09:47.645Z,98901.63
2022-12-16T20:12:33.987Z,98900.00
2022-12-16T20:15:23.210Z,98899.13
2022-12-16T20:18:09.618Z,98905.44
2022-12-16T20:20:58.256Z,98925.28
2022-12-16T20:23:41.748Z,98923.38
2022-12-16T20:26:28.442Z,98923.97
2022-12-16T20:29:15.090Z,98930.22
2022-12-16T20:32:01.608Z,98927.50
2022-12-16T20:34:47.246Z,98937.34
2022-12-16T20:37:37.315Z,98942.78
2022-12-16T20:40:24.915Z,98954.69
2022-12-16T20:43:11.214Z,98954.94
2022-12-16T20:45:58.131Z,98955.38
2022-12-16T20:48:44.299Z,98956.44
2022-12-16T20:51:30.528Z,98962.69
2022-12-16T20:54:17.877Z,98968.97
2022-12-16T20:57:07.036Z,98955.38
2022-12-16T20:59:58.166Z,98966.88
2022-12-16T21:02:45.404Z,98970.19
2022-12-16T21:05:32.386Z,98972.91
2022-12-16T21:08:19.250Z,98975.41
2022-12-16T21:11:07.731Z,98976.00
2022-12-16T21:13:56.373Z,98977.63
2022-12-16T21:16:59.661Z,98982.25
2022-12-16T21:19:46.070Z,98983.91
2022-12-16T21:22:32.080Z,98985.78
2022-12-16T21:25:24.415Z,98991.47
2022-12-16T21:28:15.840Z,98993.59
2022-12-16T21:31:02.028Z,99000.31
2022-12-16T21:33:48.592Z,98999.28
2022-12-16T21:36:35.053Z,99014.50
2022-12-16T21:39:21.284Z,99008.84
2022-12-16T21:42:07.850Z,99010.50
2022-12-16T21:48:00.751Z,99006.13
2022-12-16T21:50:46.572Z,99002.78
2022-12-16T21:53:32.808Z,99006.00
2022-12-16T21:56:18.583Z,99004.28
2022-12-16T21:59:04.497Z,99006.41
2022-12-16T22:01:51.590Z,99022.97
2022-12-16T22:04:37.693Z,99029.69
2022-12-16T22:07:23.525Z,99031.81
2022-12-16T22:10:09.551Z,99045.41
2022-12-16T22:12:56.236Z,99043.75
2022-12-16T22:15:41.999Z,99045.28
2022-12-16T22:18:29.055Z,99041.72
2022-12-16T22:21:17.135Z,99029.41
2022-12-16T22:24:02.961Z,99037.81
2022-12-16T22:26:48.796Z,99044.88
2022-12-16T22:29:34.810Z,99050.56
2022-12-16T22:32:20.524Z,99049.50
2022-12-16T22:35:07.944Z,99047.59
2022-12-16T22:37:54.067Z,99051.41
2022-12-16T22:40:41.841Z,99057.06
2022-12-16T22:43:27.855Z,99049.13
2022-12-16T22:46:18.354Z,99051.84
2022-12-16T22:49:05.225Z,99050.41
2022-12-16T22:51:52.904Z,99064.00
2022-12-16T22:54:39.645Z,99072.97
2022-12-16T22:57:21.879Z,99069.44
2022-12-16T23:00:07.696Z,99076.75
2022-12-16T23:02:53.483Z,99067.78
2022-12-16T23:05:39.787Z,99072.16
2022-12-16T23:08:30.186Z,99071.09
2022-12-16T23:11:17.650Z,99087.41
2022-12-16T23:14:03.831Z,99086.56
2022-12-16T23:16:49.692Z,99094.72
2022-12-16T23:19:35.208Z,99085.13
2022-12-16T23:22:21.109Z,99089.72
2022-12-16T23:25:08.447Z,99080.16
2022-12-16T23:27:55.349Z,99078.50
2022-12-16T23:30:57.203Z,99079.56
2022-12-16T23:33:43.098Z,99084.38
2022-12-16T23:36:28.780Z,99097.75
2022-12-16T23:39:20.074Z,99098.44
2022-12-16T23:42:07.418Z,99093.22
2022-12-16T23:44:56.491Z,99088.88
2022-12-16T23:47:42.537Z,99100.78
2022-12-16T23:50:28.981Z,99104.34
2022-12-16T23:53:30.367Z,99106.81
2022-12-16T23:56:18.454Z,99102.22
2022-12-16T23:59:06.199Z,99099.72
